createdAt,value
2018-09-06T00:00:53.905Z,1015.42
2018-09-06T00:01:54.173Z,1015.43
2018-09-06T00:02:54.558Z,1015.40
2018-09-06T00:03:54.954Z,1015.41
2018-09-06T00:04:54.427Z,1015.37
2018-09-06T00:05:54.724Z,1015.36
2018-09-06T00:06:53.959Z,1015.30
2018-09-06T00:08:15.821Z,1015.27
2018-09-06T00:09:16.234Z,1015.29
2018-09-06T00:10:16.679Z,1015.28
2018-09-06T00:11:16.294Z,1015.25
2018-09-06T00:12:37.247Z,1015.27
2018-09-06T00:13:37.528Z,1015.25
2018-09-06T00:14:59.354Z,1015.25
2018-09-06T00:15:59.623Z,1015.27
2018-09-06T00:16:59.901Z,1015.26
2018-09-06T00:17:59.250Z,1015.26
2018-09-06T00:18:59.625Z,1015.27
2018-09-06T00:20:21.163Z,1015.26
2018-09-06T00:21:42.639Z,1015.23
2018-09-06T00:22:42.985Z,1015.24
2018-09-06T00:23:43.417Z,1015.21
2018-09-06T00:24:44.145Z,1015.19
2018-09-06T00:25:43.661Z,1015.21
2018-09-06T00:26:43.134Z,1015.17
2018-09-06T00:27:43.590Z,1015.19
2018-09-06T00:28:43.121Z,1015.17
2018-09-06T00:29:43.618Z,1015.15
2018-09-06T00:30:43.075Z,1015.16
2018-09-06T00:31:43.313Z,1015.19
2018-09-06T00:32:42.827Z,1015.20
2018-09-06T00:34:05.773Z,1015.21
2018-09-06T00:35:05.941Z,1015.20
2018-09-06T00:36:06.275Z,1015.18
2018-09-06T00:37:05.635Z,1015.16
2018-09-06T00:38:05.955Z,1015.10
2018-09-06T00:39:06.306Z,1015.11
2018-09-06T00:40:27.898Z,1015.09
2018-09-06T00:41:28.200Z,1015.10
2018-09-06T00:42:29.509Z,1015.09
2018-09-06T00:43:29.154Z,1015.08
2018-09-06T00:44:28.408Z,1015.07
2018-09-06T00:45:27.909Z,1015.09
2018-09-06T00:46:28.496Z,1015.05
2018-09-06T00:47:27.945Z,1015.10
2018-09-06T00:48:28.240Z,1015.06
2018-09-06T00:49:28.487Z,1015.05
2018-09-06T00:50:27.816Z,1015.03
2018-09-06T00:51:28.266Z,1015.02
2018-09-06T00:52:28.411Z,1015.01
2018-09-06T00:53:27.930Z,1014.98
2018-09-06T00:54:28.151Z,1014.97
2018-09-06T00:55:28.518Z,1014.95
2018-09-06T00:56:48.876Z,1014.91
2018-09-06T00:57:49.277Z,1014.92
2018-09-06T00:58:49.950Z,1014.90
2018-09-06T00:59:49.339Z,1014.94
2018-09-06T01:00:49.666Z,1014.94
2018-09-06T01:01:49.918Z,1014.90
2018-09-06T01:02:49.019Z,1014.91
2018-09-06T01:03:49.304Z,1014.95
2018-09-06T01:04:49.748Z,1014.94
2018-09-06T01:06:10.339Z,1014.96
2018-09-06T01:07:10.808Z,1014.97
2018-09-06T01:08:11.304Z,1014.94
2018-09-06T01:09:12.575Z,1014.95
2018-09-06T01:10:10.966Z,1014.93
2018-09-06T01:11:12.571Z,1014.97
2018-09-06T01:12:10.976Z,1014.91
2018-09-06T01:13:52.953Z,1014.92
2018-09-06T01:14:53.495Z,1014.88
2018-09-06T01:15:53.856Z,1014.87
2018-09-06T01:16:53.110Z,1014.83
2018-09-06T01:17:53.369Z,1014.81
2018-09-06T01:18:53.508Z,1014.81
2018-09-06T01:19:53.839Z,1014.78
2018-09-06T01:20:53.473Z,1014.76
2018-09-06T01:22:35.306Z,1014.75
2018-09-06T01:23:35.354Z,1014.74
2018-09-06T01:24:56.988Z,1014.72
2018-09-06T01:25:57.049Z,1014.78
2018-09-06T01:26:57.360Z,1014.75
2018-09-06T01:27:57.779Z,1014.75
2018-09-06T01:28:57.213Z,1014.72
2018-09-06T01:29:57.709Z,1014.70
2018-09-06T01:30:56.797Z,1014.67
2018-09-06T01:31:57.027Z,1014.65
2018-09-06T01:33:03.084Z,1014.64
2018-09-06T01:34:26.560Z,1014.63
2018-09-06T01:35:26.926Z,1014.57
2018-09-06T01:36:26.206Z,1014.56
2018-09-06T01:37:26.491Z,1014.43
2018-09-06T01:38:26.942Z,1014.54
2018-09-06T01:39:26.423Z,1014.55
2018-09-06T01:40:26.829Z,1014.53
2018-09-06T01:41:27.206Z,1014.53
2018-09-06T01:42:26.517Z,1014.52
2018-09-06T01:43:26.714Z,1014.50
2018-09-06T01:44:26.996Z,1014.52
2018-09-06T01:45:26.292Z,1014.49
2018-09-06T01:46:26.782Z,1014.47
2018-09-06T01:47:26.231Z,1014.51
2018-09-06T01:48:26.710Z,1014.47
2018-09-06T01:49:27.140Z,1014.47
2018-09-06T01:50:26.940Z,1014.42
2018-09-06T01:51:26.303Z,1014.47
2018-09-06T01:52:26.680Z,1014.46
2018-09-06T01:53:27.093Z,1014.38
2018-09-06T01:54:26.401Z,1014.39
2018-09-06T01:55:48.344Z,1014.40
2018-09-06T01:56:48.736Z,1014.37
2018-09-06T01:57:49.202Z,1014.42
2018-09-06T01:58:48.814Z,1014.38
2018-09-06T01:59:48.955Z,1014.36
2018-09-06T02:00:49.279Z,1014.39
2018-09-06T02:01:48.645Z,1014.37
2018-09-06T02:02:49.019Z,1014.40
2018-09-06T02:03:49.266Z,1014.40
2018-09-06T02:04:48.828Z,1014.33
2018-09-06T02:05:49.125Z,1014.38
2018-09-06T02:06:48.638Z,1014.37
2018-09-06T02:07:49.062Z,1014.34
2018-09-06T02:08:49.351Z,1014.38
2018-09-06T02:09:48.987Z,1014.37
2018-09-06T02:10:49.205Z,1014.34
2018-09-06T02:11:49.830Z,1014.33
2018-09-06T02:12:49.237Z,1014.39
2018-09-06T02:13:50.290Z,1014.33
2018-09-06T02:14:49.423Z,1014.35
2018-09-06T02:15:48.985Z,1014.35
2018-09-06T02:16:48.608Z,1014.34
2018-09-06T02:18:31.363Z,1014.33
2018-09-06T02:19:53.135Z,1014.34
2018-09-06T02:21:15.591Z,1014.33
2018-09-06T02:22:16.459Z,1014.36
2018-09-06T02:23:17.149Z,1014.33
2018-09-06T02:24:15.176Z,1014.34
2018-09-06T02:25:16.281Z,1014.31
2018-09-06T02:26:36.733Z,1014.38
2018-09-06T02:28:00.312Z,1014.28
2018-09-06T02:29:00.859Z,1014.32
2018-09-06T02:30:01.563Z,1014.28
2018-09-06T02:31:01.157Z,1014.26
2018-09-06T02:32:00.703Z,1014.28
2018-09-06T02:33:00.981Z,1014.27
2018-09-06T02:34:22.675Z,1014.22
2018-09-06T02:36:04.992Z,1014.25
2018-09-06T02:37:05.672Z,1014.24
2018-09-06T02:38:05.903Z,1014.20
2018-09-06T02:39:06.087Z,1014.24
2018-09-06T02:40:05.594Z,1014.25
2018-09-06T02:41:05.147Z,1014.21
2018-09-06T02:42:05.827Z,1014.19
2018-09-06T02:43:05.811Z,1014.21
2018-09-06T02:44:05.430Z,1014.21
2018-09-06T02:45:05.705Z,1014.20
2018-09-06T02:46:08.006Z,1014.20
2018-09-06T02:47:05.708Z,1014.11
2018-09-06T02:48:05.485Z,1014.17
2018-09-06T02:49:05.952Z,1014.15
2018-09-06T02:50:49.504Z,1014.18
2018-09-06T02:51:51.555Z,1014.19
2018-09-06T02:52:52.838Z,1014.16
2018-09-06T02:53:49.485Z,1014.16
2018-09-06T02:54:50.860Z,1014.14
2018-09-06T02:55:50.362Z,1014.17
2018-09-06T02:56:50.723Z,1014.14
2018-09-06T02:57:50.168Z,1014.12
2018-09-06T02:58:49.444Z,1014.11
2018-09-06T03:00:11.091Z,1014.06
2018-09-06T03:01:34.062Z,1014.09
2018-09-06T03:02:34.569Z,1014.09
2018-09-06T03:04:01.756Z,1014.09
2018-09-06T03:05:02.170Z,1014.02
2018-09-06T03:06:04.518Z,1014.03
2018-09-06T03:07:45.246Z,1014.06
2018-09-06T03:08:45.684Z,1014.04
2018-09-06T03:09:45.756Z,1014.02
2018-09-06T03:10:46.173Z,1013.99
2018-09-06T03:11:45.711Z,1014.02
2018-09-06T03:12:45.499Z,1014.02
2018-09-06T03:14:07.210Z,1013.99
2018-09-06T03:15:08.047Z,1013.99
2018-09-06T03:16:07.446Z,1013.96
2018-09-06T03:17:07.943Z,1013.94
2018-09-06T03:18:07.966Z,1013.94
2018-09-06T03:19:29.150Z,1013.93
2018-09-06T03:20:54.181Z,1013.88
2018-09-06T03:21:52.641Z,1013.87
2018-09-06T03:22:52.728Z,1013.87
2018-09-06T03:23:52.253Z,1013.83
2018-09-06T03:25:14.274Z,1013.86
2018-09-06T03:26:14.874Z,1013.85
2018-09-06T03:27:14.374Z,1013.84
2018-09-06T03:28:14.056Z,1013.85
2018-09-06T03:29:36.465Z,1013.86
2018-09-06T03:30:36.955Z,1013.85
2018-09-06T03:31:58.462Z,1013.87
2018-09-06T03:33:00.137Z,1013.86
2018-09-06T03:33:58.727Z,1013.87
2018-09-06T03:34:59.021Z,1013.89
2018-09-06T03:35:58.488Z,1013.89
2018-09-06T03:37:23.002Z,1013.87
2018-09-06T03:38:21.044Z,1013.92
2018-09-06T03:39:20.578Z,1013.90
2018-09-06T03:40:22.605Z,1013.88
2018-09-06T03:41:21.104Z,1013.89
2018-09-06T03:42:20.961Z,1013.89
2018-09-06T03:43:20.495Z,1013.88
2018-09-06T03:44:22.017Z,1013.89
2018-09-06T03:45:20.425Z,1013.82
2018-09-06T03:46:42.797Z,1013.81
2018-09-06T03:47:43.169Z,1013.83
2018-09-06T03:48:42.702Z,1013.82
2018-09-06T03:49:44.136Z,1013.82
2018-09-06T03:50:42.535Z,1013.79
2018-09-06T03:51:43.155Z,1013.81
2018-09-06T03:52:45.887Z,1013.81
2018-09-06T03:53:43.430Z,1013.85
2018-09-06T03:54:42.609Z,1013.83
2018-09-06T03:55:43.081Z,1013.80
2018-09-06T03:56:43.458Z,1013.82
2018-09-06T03:57:42.971Z,1013.84
2018-09-06T03:58:43.230Z,1013.80
2018-09-06T03:59:42.378Z,1013.79
2018-09-06T04:00:42.834Z,1013.79
2018-09-06T04:01:43.027Z,1013.76
2018-09-06T04:02:42.349Z,1013.75
2018-09-06T04:03:42.621Z,1013.76
2018-09-06T04:04:43.033Z,1013.78
2018-09-06T04:05:43.820Z,1013.79
2018-09-06T04:06:42.969Z,1013.80
2018-09-06T04:07:43.159Z,1013.77
2018-09-06T04:08:42.614Z,1013.73
2018-09-06T04:09:42.930Z,1013.78
2018-09-06T04:11:03.641Z,1013.74
2018-09-06T04:12:03.875Z,1013.75
2018-09-06T04:13:04.333Z,1013.78
2018-09-06T04:14:03.667Z,1013.83
2018-09-06T04:15:04.042Z,1013.81
2018-09-06T04:17:07.718Z,1013.78
2018-09-06T04:18:07.944Z,1013.72
2018-09-06T04:19:30.325Z,1013.74
2018-09-06T04:20:30.784Z,1013.69
2018-09-06T04:21:31.053Z,1013.68
2018-09-06T04:22:31.513Z,1013.69
2018-09-06T04:23:30.733Z,1013.70
2018-09-06T04:25:13.423Z,1013.72
2018-09-06T04:26:13.633Z,1013.69
2018-09-06T04:27:13.915Z,1013.73
2018-09-06T04:28:14.233Z,1013.75
2018-09-06T04:29:13.595Z,1013.70
2018-09-06T04:30:35.109Z,1013.71
2018-09-06T04:31:35.684Z,1013.71
2018-09-06T04:32:35.758Z,1013.66
2018-09-06T04:33:36.961Z,1013.65
2018-09-06T04:34:36.229Z,1013.60
2018-09-06T04:35:35.675Z,1013.59
2018-09-06T04:37:18.586Z,1013.54
2018-09-06T04:38:18.868Z,1013.51
2018-09-06T04:39:19.324Z,1013.53
2018-09-06T04:40:18.680Z,1013.51
2018-09-06T04:41:19.003Z,1013.53
2018-09-06T04:42:19.343Z,1013.54
2018-09-06T04:43:19.453Z,1013.57
2018-09-06T04:44:40.255Z,1013.59
2018-09-06T04:45:40.749Z,1013.62
2018-09-06T04:46:41.127Z,1013.67
2018-09-06T04:47:40.453Z,1013.65
2018-09-06T04:48:41.007Z,1013.64
2018-09-06T04:49:40.450Z,1013.65
2018-09-06T04:50:40.871Z,1013.66
2018-09-06T04:51:41.209Z,1013.68
2018-09-06T04:52:40.636Z,1013.72
2018-09-06T04:53:40.946Z,1013.71
2018-09-06T04:54:41.733Z,1013.75
2018-09-06T04:55:40.969Z,1013.70
2018-09-06T04:57:01.790Z,1013.73
2018-09-06T04:58:23.372Z,1013.74
2018-09-06T04:59:23.954Z,1013.73
2018-09-06T05:00:45.813Z,1013.73
2018-09-06T05:02:07.761Z,1013.66
2018-09-06T05:03:08.098Z,1013.66
2018-09-06T05:04:07.714Z,1013.63
2018-09-06T05:05:08.277Z,1013.59
2018-09-06T05:06:29.342Z,1013.62
2018-09-06T05:07:29.769Z,1013.56
2018-09-06T05:08:50.510Z,1013.57
2018-09-06T05:09:50.808Z,1013.54
2018-09-06T05:10:51.190Z,1013.56
2018-09-06T05:11:50.598Z,1013.58
2018-09-06T05:12:50.889Z,1013.56
2018-09-06T05:13:51.453Z,1013.58
2018-09-06T05:14:50.888Z,1013.56
2018-09-06T05:15:51.377Z,1013.55
2018-09-06T05:16:50.865Z,1013.55
2018-09-06T05:17:52.469Z,1013.53
2018-09-06T05:18:51.272Z,1013.54
2018-09-06T05:19:50.828Z,1013.53
2018-09-06T05:20:51.309Z,1013.52
2018-09-06T05:21:51.055Z,1013.53
2018-09-06T05:22:51.450Z,1013.54
2018-09-06T05:23:50.899Z,1013.53
2018-09-06T05:24:51.387Z,1013.56
2018-09-06T05:25:51.377Z,1013.57
2018-09-06T05:26:51.288Z,1013.56
2018-09-06T05:27:50.794Z,1013.60
2018-09-06T05:28:51.087Z,1013.59
2018-09-06T05:29:50.719Z,1013.61
2018-09-06T05:30:51.443Z,1013.61
2018-09-06T05:31:51.098Z,1013.67
2018-09-06T05:32:50.643Z,1013.64
2018-09-06T05:33:50.952Z,1013.68
2018-09-06T05:34:52.343Z,1013.70
2018-09-06T05:36:33.697Z,1013.68
2018-09-06T05:37:34.029Z,1013.69
2018-09-06T05:38:34.388Z,1013.67
2018-09-06T05:39:55.385Z,1013.69
2018-09-06T05:40:55.795Z,1013.73
2018-09-06T05:41:56.167Z,1013.73
2018-09-06T05:42:56.361Z,1013.76
2018-09-06T05:43:55.931Z,1013.79
2018-09-06T05:44:56.251Z,1013.78
2018-09-06T05:45:55.765Z,1013.76
2018-09-06T05:46:56.176Z,1013.76
2018-09-06T05:47:55.669Z,1013.77
2018-09-06T05:48:56.006Z,1013.75
2018-09-06T05:49:55.344Z,1013.76
2018-09-06T05:50:55.636Z,1013.75
2018-09-06T05:52:17.122Z,1013.74
2018-09-06T05:53:17.383Z,1013.73
2018-09-06T05:54:38.826Z,1013.75
2018-09-06T05:55:39.157Z,1013.75
2018-09-06T05:56:40.109Z,1013.73
2018-09-06T05:57:39.774Z,1013.75
2018-09-06T05:59:00.183Z,1013.77
2018-09-06T06:00:00.565Z,1013.75
2018-09-06T06:01:00.852Z,1013.72
2018-09-06T06:02:01.108Z,1013.68
2018-09-06T06:03:00.528Z,1013.71
2018-09-06T06:04:01.037Z,1013.69
2018-09-06T06:05:00.610Z,1013.64
2018-09-06T06:06:01.023Z,1013.66
2018-09-06T06:07:21.851Z,1013.62
2018-09-06T06:08:22.282Z,1013.66
2018-09-06T06:09:22.787Z,1013.64
2018-09-06T06:10:22.146Z,1013.65
2018-09-06T06:11:22.514Z,1013.61
2018-09-06T06:12:21.833Z,1013.58
2018-09-06T06:13:22.046Z,1013.58
2018-09-06T06:14:22.457Z,1013.56
2018-09-06T06:15:21.587Z,1013.54
2018-09-06T06:16:22.091Z,1013.57
2018-09-06T06:17:44.054Z,1013.52
2018-09-06T06:18:44.485Z,1013.56
2018-09-06T06:19:44.739Z,1013.49
2018-09-06T06:20:44.156Z,1013.49
2018-09-06T06:22:05.996Z,1013.52
2018-09-06T06:23:07.090Z,1013.49
2018-09-06T06:24:27.750Z,1013.48
2018-09-06T06:25:28.220Z,1013.52
2018-09-06T06:26:28.692Z,1013.45
2018-09-06T06:28:10.933Z,1013.45
2018-09-06T06:29:11.379Z,1013.46
2018-09-06T06:30:11.532Z,1013.48
2018-09-06T06:31:32.567Z,1013.46
2018-09-06T06:32:33.116Z,1013.48
2018-09-06T06:33:32.506Z,1013.47
2018-09-06T06:34:54.423Z,1013.46
2018-09-06T06:35:54.865Z,1013.46
2018-09-06T06:36:54.394Z,1013.44
2018-09-06T06:37:54.844Z,1013.41
2018-09-06T06:38:54.452Z,1013.42
2018-09-06T06:39:55.119Z,1013.43
2018-09-06T06:40:54.627Z,1013.41
2018-09-06T06:41:55.779Z,1013.37
2018-09-06T06:42:55.658Z,1013.31
2018-09-06T06:43:55.446Z,1013.31
2018-09-06T06:44:54.921Z,1013.34
2018-09-06T06:45:55.375Z,1013.29
2018-09-06T06:46:55.032Z,1013.33
2018-09-06T06:47:54.637Z,1013.32
2018-09-06T06:48:55.492Z,1013.30
2018-09-06T06:49:55.725Z,1013.28
2018-09-06T06:50:55.211Z,1013.28
2018-09-06T06:51:54.506Z,1013.26
2018-09-06T06:52:54.933Z,1013.21
2018-09-06T06:53:54.438Z,1013.24
2018-09-06T06:54:54.889Z,1013.22
2018-09-06T06:55:55.166Z,1013.23
2018-09-06T06:56:54.594Z,1013.15
2018-09-06T06:57:55.186Z,1013.16
2018-09-06T06:58:54.512Z,1013.09
2018-09-06T06:59:54.939Z,1013.05
2018-09-06T07:00:54.484Z,1013.09
2018-09-06T07:02:25.374Z,1013.09
2018-09-06T07:03:16.841Z,1013.07
2018-09-06T07:04:17.357Z,1013.05
2018-09-06T07:05:16.865Z,1013.07
2018-09-06T07:06:37.830Z,1013.05
2018-09-06T07:07:38.387Z,1013.10
2018-09-06T07:08:59.443Z,1013.07
2018-09-06T07:09:59.934Z,1013.08
2018-09-06T07:10:59.427Z,1013.09
2018-09-06T07:12:21.914Z,1013.11
2018-09-06T07:13:22.360Z,1013.09
2018-09-06T07:14:22.720Z,1013.09
2018-09-06T07:15:23.030Z,1013.13
2018-09-06T07:16:22.861Z,1013.19
2018-09-06T07:17:22.313Z,1013.18
2018-09-06T07:18:22.619Z,1013.19
2018-09-06T07:19:22.292Z,1013.17
2018-09-06T07:20:43.693Z,1013.13
2018-09-06T07:21:44.289Z,1013.16
2018-09-06T07:22:44.710Z,1013.09
2018-09-06T07:23:44.508Z,1013.07
2018-09-06T07:24:43.911Z,1013.11
2018-09-06T07:25:44.596Z,1013.16
2018-09-06T07:26:44.560Z,1013.16
2018-09-06T07:27:44.168Z,1013.17
2018-09-06T07:28:44.699Z,1013.23
2018-09-06T07:29:44.242Z,1013.26
2018-09-06T07:30:44.740Z,1013.31
2018-09-06T07:31:44.653Z,1013.31
2018-09-06T07:32:44.035Z,1013.35
2018-09-06T07:33:44.307Z,1013.29
2018-09-06T07:34:45.218Z,1013.32
2018-09-06T07:35:44.838Z,1013.27
2018-09-06T07:36:44.595Z,1013.27
2018-09-06T07:37:44.116Z,1013.26
2018-09-06T07:39:07.284Z,1013.30
2018-09-06T07:40:07.814Z,1013.25
2018-09-06T07:41:07.130Z,1013.26
2018-09-06T07:42:07.645Z,1013.24
2018-09-06T07:43:08.008Z,1013.24
2018-09-06T07:44:08.210Z,1013.22
2018-09-06T07:45:07.812Z,1013.22
2018-09-06T07:46:07.444Z,1013.21
2018-09-06T07:47:18.959Z,1013.19
2018-09-06T07:48:50.257Z,1013.20
2018-09-06T07:49:50.604Z,1013.14
2018-09-06T07:50:50.101Z,1013.09
2018-09-06T07:51:50.630Z,1013.09
2018-09-06T07:52:51.075Z,1013.10
2018-09-06T07:53:50.625Z,1013.09
2018-09-06T07:54:51.105Z,1013.03
2018-09-06T07:55:50.732Z,1013.04
2018-09-06T07:56:50.179Z,1013.03
2018-09-06T07:57:50.446Z,1013.00
2018-09-06T07:58:51.064Z,1013.04
2018-09-06T07:59:50.488Z,1013.04
2018-09-06T08:00:51.001Z,1013.03
2018-09-06T08:01:50.308Z,1013.05
2018-09-06T08:02:50.810Z,1013.08
2018-09-06T08:03:50.220Z,1013.03
2018-09-06T08:04:50.607Z,1013.03
2018-09-06T08:06:12.235Z,1013.00
2018-09-06T08:07:33.845Z,1013.02
2018-09-06T08:08:34.400Z,1013.00
2018-09-06T08:09:33.918Z,1013.00
2018-09-06T08:10:34.478Z,1013.01
2018-09-06T08:11:35.042Z,1013.01
2018-09-06T08:12:34.729Z,1013.01
2018-09-06T08:13:34.746Z,1012.99
2018-09-06T08:14:34.587Z,1013.03
2018-09-06T08:15:34.326Z,1013.03
2018-09-06T08:16:34.782Z,1013.06
2018-09-06T08:17:34.514Z,1013.06
2018-09-06T08:18:33.807Z,1013.07
2018-09-06T08:19:33.993Z,1013.11
2018-09-06T08:20:55.963Z,1013.09
2018-09-06T08:21:56.260Z,1013.09
2018-09-06T08:23:18.262Z,1013.08
2018-09-06T08:24:18.655Z,1013.08
2018-09-06T08:25:18.101Z,1013.02
2018-09-06T08:26:39.912Z,1013.03
2018-09-06T08:27:40.211Z,1013.04
2018-09-06T08:28:40.645Z,1013.02
2018-09-06T08:29:40.676Z,1013.02
2018-09-06T08:31:01.700Z,1013.03
2018-09-06T08:32:02.431Z,1013.03
2018-09-06T08:33:01.791Z,1013.02
2018-09-06T08:34:02.138Z,1013.02
2018-09-06T08:35:22.681Z,1013.00
2018-09-06T08:36:22.873Z,1012.98
2018-09-06T08:37:23.375Z,1012.96
2018-09-06T08:38:44.202Z,1012.98
2018-09-06T08:39:45.004Z,1012.95
2018-09-06T08:40:44.497Z,1012.90
2018-09-06T08:41:45.687Z,1012.86
2018-09-06T08:42:44.845Z,1012.81
2018-09-06T08:43:45.110Z,1012.80
2018-09-06T08:44:44.377Z,1012.82
2018-09-06T08:45:44.631Z,1012.79
2018-09-06T08:46:45.529Z,1012.80
2018-09-06T08:47:44.848Z,1012.82
2018-09-06T08:48:44.944Z,1012.82
2018-09-06T08:49:44.455Z,1012.78
2018-09-06T08:50:45.176Z,1012.81
2018-09-06T08:51:44.501Z,1012.80
2018-09-06T08:52:45.006Z,1012.80
2018-09-06T08:53:44.509Z,1012.85
2018-09-06T08:54:44.843Z,1012.82
2018-09-06T08:55:44.260Z,1012.84
2018-09-06T08:56:44.606Z,1012.79
2018-09-06T08:57:44.330Z,1012.80
2018-09-06T08:58:44.906Z,1012.82
2018-09-06T08:59:44.156Z,1012.82
2018-09-06T09:00:44.619Z,1012.76
2018-09-06T09:01:44.118Z,1012.79
2018-09-06T09:02:44.552Z,1012.81
2018-09-06T09:03:43.934Z,1012.82
2018-09-06T09:04:44.436Z,1012.86
2018-09-06T09:05:44.973Z,1012.90
2018-09-06T09:06:44.512Z,1012.87
2018-09-06T09:07:44.116Z,1012.87
2018-09-06T09:08:44.412Z,1012.89
2018-09-06T09:10:06.263Z,1012.86
2018-09-06T09:11:06.857Z,1012.86
2018-09-06T09:12:06.349Z,1012.84
2018-09-06T09:13:06.931Z,1012.80
2018-09-06T09:14:07.881Z,1012.78
2018-09-06T09:16:12.173Z,1012.79
2018-09-06T09:17:12.813Z,1012.75
2018-09-06T09:18:12.266Z,1012.74
2018-09-06T09:19:12.881Z,1012.76
2018-09-06T09:20:12.507Z,1012.76
2018-09-06T09:21:12.981Z,1012.73
2018-09-06T09:22:12.454Z,1012.76
2018-09-06T09:23:13.260Z,1012.77
2018-09-06T09:24:56.132Z,1012.80
2018-09-06T09:25:55.705Z,1012.78
2018-09-06T09:26:55.987Z,1012.79
2018-09-06T09:27:56.522Z,1012.78
2018-09-06T09:28:56.123Z,1012.75
2018-09-06T09:29:56.378Z,1012.76
2018-09-06T09:30:56.143Z,1012.75
2018-09-06T09:31:56.718Z,1012.76
2018-09-06T09:32:56.776Z,1012.80
2018-09-06T09:33:56.340Z,1012.77
2018-09-06T09:34:56.157Z,1012.77
2018-09-06T09:35:57.159Z,1012.80
2018-09-06T09:36:56.202Z,1012.81
2018-09-06T09:37:57.032Z,1012.82
2018-09-06T09:38:57.095Z,1012.79
2018-09-06T09:39:56.715Z,1012.73
2018-09-06T09:40:56.274Z,1012.71
2018-09-06T09:41:56.339Z,1012.72
2018-09-06T09:42:56.155Z,1012.70
2018-09-06T09:43:56.713Z,1012.69
2018-09-06T09:45:17.852Z,1012.74
2018-09-06T09:48:14.013Z,1012.78
2018-09-06T09:49:14.704Z,1012.76
2018-09-06T09:50:59.558Z,1012.80
2018-09-06T09:52:00.200Z,1012.81
2018-09-06T09:52:59.578Z,1012.81
2018-09-06T09:54:00.253Z,1012.81
2018-09-06T09:54:59.567Z,1012.83
2018-09-06T09:56:00.530Z,1012.80
2018-09-06T09:57:00.647Z,1012.83
2018-09-06T09:58:22.480Z,1012.83
2018-09-06T09:59:23.152Z,1012.79
2018-09-06T10:00:22.431Z,1012.85
2018-09-06T10:01:44.510Z,1012.83
2018-09-06T10:02:44.850Z,1012.82
2018-09-06T10:04:08.239Z,1012.79
2018-09-06T10:05:08.723Z,1012.79
2018-09-06T10:06:08.001Z,1012.81
2018-09-06T10:07:08.532Z,1012.80
2018-09-06T10:08:08.769Z,1012.75
2018-09-06T10:09:29.677Z,1012.80
2018-09-06T10:10:30.389Z,1012.76
2018-09-06T10:11:29.954Z,1012.76
2018-09-06T10:12:52.191Z,1012.76
2018-09-06T10:13:53.422Z,1012.76
2018-09-06T10:14:52.958Z,1012.79
2018-09-06T10:15:52.872Z,1012.80
2018-09-06T10:16:52.371Z,1012.80
2018-09-06T10:17:53.123Z,1012.77
2018-09-06T10:18:52.722Z,1012.78
2018-09-06T10:19:52.497Z,1012.80
2018-09-06T10:20:53.039Z,1012.76
2018-09-06T10:21:52.712Z,1012.78
2018-09-06T10:22:52.115Z,1012.77
2018-09-06T10:23:52.834Z,1012.78
2018-09-06T10:24:52.670Z,1012.74
2018-09-06T10:26:13.730Z,1012.73
2018-09-06T10:27:14.545Z,1012.72
2018-09-06T10:28:14.268Z,1012.72
2018-09-06T10:29:13.878Z,1012.71
2018-09-06T10:30:36.115Z,1012.74
2018-09-06T10:31:57.861Z,1012.75
2018-09-06T10:32:58.306Z,1012.77
2018-09-06T10:33:58.815Z,1012.77
2018-09-06T10:34:59.236Z,1012.78
2018-09-06T10:36:20.854Z,1012.84
2018-09-06T10:37:20.515Z,1012.83
2018-09-06T10:38:20.964Z,1012.86
2018-09-06T10:39:20.563Z,1012.85
2018-09-06T10:40:20.240Z,1012.85
2018-09-06T10:41:20.936Z,1012.81
2018-09-06T10:42:20.605Z,1012.83
2018-09-06T10:43:21.123Z,1012.81
2018-09-06T10:44:20.785Z,1012.84
2018-09-06T10:45:22.042Z,1012.77
2018-09-06T10:46:20.435Z,1012.78
2018-09-06T10:47:20.855Z,1012.76
2018-09-06T10:48:20.415Z,1012.77
2018-09-06T10:49:20.919Z,1012.79
2018-09-06T10:50:41.682Z,1012.75
2018-09-06T10:51:42.202Z,1012.73
2018-09-06T10:52:41.761Z,1012.70
2018-09-06T10:53:43.507Z,1012.68
2018-09-06T10:54:41.992Z,1012.68
2018-09-06T10:56:03.747Z,1012.69
2018-09-06T10:57:04.462Z,1012.66
2018-09-06T10:58:05.085Z,1012.64
2018-09-06T10:59:04.755Z,1012.64
2018-09-06T11:00:04.455Z,1012.63
2018-09-06T11:01:26.656Z,1012.61
2018-09-06T11:02:27.317Z,1012.63
2018-09-06T11:03:26.759Z,1012.61
2018-09-06T11:04:27.991Z,1012.62
2018-09-06T11:05:26.698Z,1012.65
2018-09-06T11:06:27.191Z,1012.64
2018-09-06T11:07:49.325Z,1012.64
2018-09-06T11:08:49.538Z,1012.64
2018-09-06T11:10:11.101Z,1012.64
2018-09-06T11:11:11.622Z,1012.66
2018-09-06T11:12:11.855Z,1012.62
2018-09-06T11:13:11.229Z,1012.63
2018-09-06T11:14:11.756Z,1012.67
2018-09-06T11:15:11.499Z,1012.62
2018-09-06T11:16:12.289Z,1012.65
2018-09-06T11:17:11.951Z,1012.65
2018-09-06T11:18:11.396Z,1012.64
2018-09-06T11:19:11.798Z,1012.66
2018-09-06T11:20:33.076Z,1012.65
2018-09-06T11:21:56.755Z,1012.69
2018-09-06T11:23:18.327Z,1012.68
2018-09-06T11:24:19.499Z,1012.65
2018-09-06T11:25:19.661Z,1012.64
2018-09-06T11:26:42.796Z,1012.62
2018-09-06T11:27:42.716Z,1012.62
2018-09-06T11:28:42.333Z,1012.60
2018-09-06T11:29:43.294Z,1012.64
2018-09-06T11:31:05.017Z,1012.65
2018-09-06T11:32:05.061Z,1012.64
2018-09-06T11:33:04.961Z,1012.66
2018-09-06T11:34:05.792Z,1012.63
2018-09-06T11:35:06.538Z,1012.60
2018-09-06T11:36:04.911Z,1012.62
2018-09-06T11:37:27.268Z,1012.63
2018-09-06T11:38:27.915Z,1012.57
2018-09-06T11:39:27.371Z,1012.56
2018-09-06T11:40:28.047Z,1012.54
2018-09-06T11:41:27.695Z,1012.53
2018-09-06T11:42:49.486Z,1012.53
2018-09-06T11:43:50.251Z,1012.49
2018-09-06T11:45:11.094Z,1012.49
2018-09-06T11:46:11.733Z,1012.51
2018-09-06T11:47:11.333Z,1012.51
2018-09-06T11:48:11.780Z,1012.52
2018-09-06T11:49:11.232Z,1012.53
2018-09-06T11:49:51.901Z,1012.52
2018-09-06T11:50:52.197Z,1012.51
2018-09-06T11:51:51.770Z,1012.53
2018-09-06T11:53:12.538Z,1012.53
2018-09-06T11:54:34.547Z,1012.50
2018-09-06T11:55:35.174Z,1012.54
2018-09-06T11:56:36.368Z,1012.50
2018-09-06T11:57:35.189Z,1012.50
2018-09-06T11:58:35.015Z,1012.49
2018-09-06T11:59:56.182Z,1012.53
2018-09-06T12:00:56.512Z,1012.52
2018-09-06T12:01:56.600Z,1012.52
2018-09-06T12:02:56.137Z,1012.52
2018-09-06T12:03:55.804Z,1012.53
2018-09-06T12:04:57.412Z,1012.52
2018-09-06T12:05:56.114Z,1012.40
2018-09-06T12:06:55.760Z,1012.51
2018-09-06T12:07:56.409Z,1012.53
2018-09-06T12:08:55.867Z,1012.55
2018-09-06T12:09:56.196Z,1012.55
2018-09-06T12:10:55.741Z,1012.51
2018-09-06T12:11:57.451Z,1012.52
2018-09-06T12:12:56.951Z,1012.51
2018-09-06T12:13:56.598Z,1012.56
2018-09-06T12:14:56.391Z,1012.56
2018-09-06T12:15:56.012Z,1012.59
2018-09-06T12:16:57.044Z,1012.61
2018-09-06T12:17:56.525Z,1012.64
2018-09-06T12:18:56.554Z,1012.62
2018-09-06T12:19:56.061Z,1012.64
2018-09-06T12:20:56.293Z,1012.65
2018-09-06T12:21:55.785Z,1012.67
2018-09-06T12:23:17.485Z,1012.69
2018-09-06T12:24:17.876Z,1012.72
2018-09-06T12:25:17.489Z,1012.71
2018-09-06T12:25:57.569Z,1012.73
2018-09-06T12:26:57.756Z,1012.74
2018-09-06T12:27:59.207Z,1012.74
2018-09-06T12:28:57.696Z,1012.76
2018-09-06T12:29:57.357Z,1012.74
2018-09-06T12:30:57.621Z,1012.75
2018-09-06T12:31:57.178Z,1012.73
2018-09-06T12:32:57.738Z,1012.73
2018-09-06T12:33:57.381Z,1012.76
2018-09-06T12:34:58.055Z,1012.76
2018-09-06T12:36:19.394Z,1012.81
2018-09-06T12:37:20.452Z,1012.81
2018-09-06T12:38:19.896Z,1012.83
2018-09-06T12:39:19.427Z,1012.81
2018-09-06T12:40:20.132Z,1012.82
2018-09-06T12:41:20.526Z,1012.85
2018-09-06T12:42:20.184Z,1012.86
2018-09-06T12:43:19.696Z,1012.90
2018-09-06T12:44:20.447Z,1012.88
2018-09-06T12:45:40.909Z,1012.89
2018-09-06T12:47:02.583Z,1012.92
2018-09-06T12:48:03.088Z,1012.88
2018-09-06T12:49:03.681Z,1012.88
2018-09-06T12:50:03.365Z,1012.88
2018-09-06T12:50:22.085Z,1012.85
2018-09-06T12:51:22.758Z,1012.80
2018-09-06T12:52:23.163Z,1012.85